createdAt,value
2023-05-06T00:02:50.168Z,1.50
2023-05-06T00:08:04.541Z,1.77
2023-05-06T00:13:10.118Z,1.90
2023-05-06T00:18:15.697Z,2.20
2023-05-06T00:23:21.186Z,1.60
2023-05-06T00:28:53.491Z,1.40
2023-05-06T00:33:58.983Z,1.70
2023-05-06T00:39:06.180Z,2.10
2023-05-06T00:44:11.691Z,1.80
2023-05-06T00:49:17.184Z,1.60
2023-05-06T00:54:22.927Z,1.63
2023-05-06T00:59:35.488Z,1.90
2023-05-06T01:04:41.763Z,2.00
2023-05-06T01:10:02.023Z,1.70
2023-05-06T01:15:24.880Z,1.73
2023-05-06T01:20:43.685Z,1.60
2023-05-06T01:25:49.178Z,1.97
2023-05-06T01:30:57.687Z,2.60
2023-05-06T01:36:12.348Z,1.90
2023-05-06T01:41:19.104Z,1.90
2023-05-06T01:46:26.603Z,2.20
2023-05-06T01:51:36.887Z,2.13
2023-05-06T01:56:44.865Z,1.90
2023-05-06T02:02:04.156Z,1.80
2023-05-06T02:07:09.969Z,2.00
2023-05-06T02:12:15.766Z,1.90
2023-05-06T02:17:21.201Z,2.30
2023-05-06T02:22:26.704Z,2.10
2023-05-06T02:27:33.166Z,1.90
2023-05-06T02:32:38.700Z,2.17
2023-05-06T02:37:44.252Z,2.20
2023-05-06T02:42:55.815Z,2.80
2023-05-06T02:48:01.353Z,2.20
2023-05-06T02:53:09.090Z,2.30
2023-05-06T02:58:14.516Z,2.50
2023-05-06T03:03:20.030Z,2.20
2023-05-06T03:08:25.603Z,2.47
2023-05-06T03:13:32.704Z,2.60
2023-05-06T03:24:12.553Z,2.57
2023-05-06T03:29:18.230Z,3.33
2023-05-06T03:34:35.024Z,2.37
2023-05-06T03:39:48.681Z,2.50
2023-05-06T03:44:55.467Z,3.00
2023-05-06T03:50:15.050Z,3.07
2023-05-06T03:55:21.062Z,3.00
2023-05-06T04:00:41.572Z,2.80
2023-05-06T04:05:49.918Z,2.60
2023-05-06T04:11:17.554Z,2.57
2023-05-06T04:16:36.993Z,3.00
2023-05-06T04:21:47.169Z,2.80
2023-05-06T04:27:07.761Z,2.70
2023-05-06T04:32:13.781Z,3.23
2023-05-06T04:37:53.767Z,2.93
2023-05-06T04:43:08.697Z,3.03
2023-05-06T04:48:22.934Z,2.60
2023-05-06T04:53:29.507Z,2.87
2023-05-06T04:58:35.745Z,2.87
2023-05-06T05:03:41.573Z,2.70
2023-05-06T05:08:47.554Z,2.87
2023-05-06T05:14:07.075Z,3.00
2023-05-06T05:19:13.147Z,3.17
2023-05-06T05:24:21.092Z,3.17
2023-05-06T05:29:28.678Z,3.10
2023-05-06T05:34:36.324Z,3.43
2023-05-06T05:39:42.415Z,2.87
2023-05-06T05:44:48.676Z,3.00
2023-05-06T05:49:54.567Z,2.73
2023-05-06T05:55:01.922Z,3.03
2023-05-06T06:00:10.589Z,2.77
2023-05-06T06:05:18.710Z,3.07
2023-05-06T06:10:24.296Z,3.10
2023-05-06T06:15:30.075Z,3.20
2023-05-06T06:20:36.612Z,3.30
2023-05-06T06:25:42.656Z,3.23
2023-05-06T06:30:48.365Z,3.27
2023-05-06T06:35:55.804Z,2.93
2023-05-06T06:41:01.592Z,3.20
2023-05-06T06:46:08.208Z,2.93
2023-05-06T06:51:13.715Z,2.90
2023-05-06T06:56:19.194Z,3.17
2023-05-06T07:01:24.758Z,3.23
2023-05-06T07:06:34.144Z,3.13
2023-05-06T07:11:40.909Z,3.40
2023-05-06T07:16:47.621Z,2.97
2023-05-06T07:21:53.424Z,3.83
2023-05-06T07:26:59.120Z,3.43
2023-05-06T07:32:21.708Z,3.10
2023-05-06T07:43:18.759Z,3.00
2023-05-06T07:48:41.278Z,3.57
2023-05-06T07:53:47.272Z,3.47
2023-05-06T07:58:52.768Z,3.20
2023-05-06T08:04:00.084Z,2.70
2023-05-06T08:09:06.581Z,3.20
2023-05-06T08:14:12.223Z,3.90
2023-05-06T08:19:17.865Z,3.63
2023-05-06T08:24:23.366Z,3.90
2023-05-06T08:29:28.994Z,4.10
2023-05-06T08:34:35.091Z,3.20
2023-05-06T08:39:41.223Z,3.03
2023-05-06T08:44:47.892Z,3.00
2023-05-06T08:49:54.568Z,3.83
2023-05-06T08:55:02.928Z,3.07
2023-05-06T09:00:11.763Z,2.90
2023-05-06T09:05:17.377Z,3.30
2023-05-06T09:10:23.115Z,3.93
2023-05-06T09:15:30.141Z,3.23
2023-05-06T09:20:59.367Z,2.87
2023-05-06T09:26:04.733Z,3.60
2023-05-06T09:31:10.348Z,3.60
2023-05-06T09:36:16.569Z,3.50
2023-05-06T09:41:27.550Z,3.67
2023-05-06T09:46:33.676Z,3.37
2023-05-06T09:51:39.816Z,3.23
2023-05-06T09:56:46.966Z,2.90
2023-05-06T10:01:55.516Z,3.50
2023-05-06T10:07:04.285Z,3.00
2023-05-06T10:12:10.856Z,3.00
2023-05-06T10:17:19.288Z,4.20
2023-05-06T10:22:34.613Z,2.77
2023-05-06T10:27:44.709Z,3.50
2023-05-06T10:32:53.364Z,3.30
2023-05-06T10:38:01.136Z,3.07
2023-05-06T10:43:27.218Z,2.90
2023-05-06T10:48:34.019Z,2.60
2023-05-06T10:54:19.409Z,3.60
2023-05-06T10:59:29.749Z,3.00
2023-05-06T11:04:35.709Z,3.13
2023-05-06T11:10:08.417Z,3.20
2023-05-06T11:27:17.343Z,3.90
2023-05-06T11:32:25.585Z,3.30
2023-05-06T11:37:32.194Z,3.10
2023-05-06T11:42:41.598Z,3.50
2023-05-06T11:47:47.332Z,3.60
2023-05-06T11:52:56.909Z,3.53
2023-05-06T11:58:02.465Z,3.30
2023-05-06T12:03:11.670Z,3.80
2023-05-06T12:08:30.172Z,4.10
2023-05-06T12:13:52.562Z,3.30
2023-05-06T12:19:40.178Z,3.43
2023-05-06T12:24:46.565Z,3.53
2023-05-06T12:29:54.853Z,3.50
2023-05-06T12:35:02.311Z,3.63
2023-05-06T12:40:21.451Z,3.50
2023-05-06T12:45:27.401Z,3.40
2023-05-06T12:50:42.514Z,3.83
2023-05-06T12:56:03.635Z,3.50
2023-05-06T13:01:09.241Z,4.00
2023-05-06T13:06:15.883Z,3.67
2023-05-06T13:11:29.616Z,2.93
2023-05-06T13:16:35.494Z,3.57
2023-05-06T13:21:41.658Z,3.40
2023-05-06T13:26:47.073Z,3.33
2023-05-06T13:31:52.785Z,4.13
2023-05-06T13:36:59.384Z,3.97
2023-05-06T13:42:08.014Z,3.47
2023-05-06T13:47:13.194Z,3.47
2023-05-06T13:52:19.413Z,3.80
2023-05-06T13:57:26.165Z,3.60
2023-05-06T14:02:31.783Z,3.43
2023-05-06T14:07:39.669Z,3.13
2023-05-06T14:12:45.650Z,3.50
2023-05-06T14:17:51.163Z,3.80
2023-05-06T14:22:56.746Z,3.83
2023-05-06T14:28:02.880Z,3.63
2023-05-06T14:33:08.487Z,3.83
2023-05-06T14:38:14.055Z,3.90
2023-05-06T14:43:19.569Z,3.73
2023-05-06T14:48:25.610Z,3.90
2023-05-06T14:53:31.269Z,4.87
2023-05-06T14:58:36.712Z,4.33
2023-05-06T15:03:45.375Z,4.33
2023-05-06T15:09:00.728Z,4.77
2023-05-06T15:14:06.151Z,4.03
2023-05-06T15:19:11.693Z,3.67
2023-05-06T15:24:17.269Z,3.80
2023-05-06T15:29:22.762Z,3.73
2023-05-06T15:34:28.210Z,4.57
2023-05-06T15:39:38.308Z,4.47
2023-05-06T15:44:43.952Z,4.33
2023-05-06T15:49:54.542Z,4.23
2023-05-06T15:54:59.419Z,4.53
2023-05-06T16:00:05.581Z,4.00
2023-05-06T16:05:11.454Z,3.80
2023-05-06T16:10:17.011Z,4.00
2023-05-06T16:15:23.026Z,4.13
2023-05-06T16:20:29.770Z,4.13
2023-05-06T16:25:37.385Z,4.30
2023-05-06T16:30:46.451Z,4.37
2023-05-06T16:35:52.107Z,5.20
2023-05-06T16:40:57.628Z,4.60
2023-05-06T16:46:03.126Z,4.50
2023-05-06T16:51:10.474Z,4.10
2023-05-06T16:56:16.163Z,4.60
2023-05-06T17:01:21.660Z,3.97
2023-05-06T17:06:28.912Z,4.50
2023-05-06T17:11:34.526Z,4.33
2023-05-06T17:16:40.413Z,5.17
2023-05-06T17:21:45.982Z,4.60
2023-05-06T17:26:51.424Z,4.33
2023-05-06T17:31:56.958Z,4.60
2023-05-06T17:37:04.117Z,4.07
2023-05-06T17:42:10.254Z,4.33
2023-05-06T17:47:17.534Z,3.77
2023-05-06T17:52:24.652Z,4.93
2023-05-06T17:57:30.577Z,4.83
2023-05-06T18:02:38.204Z,4.60
2023-05-06T18:07:43.982Z,3.87
2023-05-06T18:12:49.598Z,3.87
2023-05-06T18:17:55.726Z,4.17
2023-05-06T18:23:02.402Z,4.10
2023-05-06T18:28:08.637Z,3.60
2023-05-06T18:33:14.772Z,4.03
2023-05-06T18:38:20.330Z,4.10
2023-05-06T18:43:25.899Z,4.00
2023-05-06T18:48:32.202Z,3.80
2023-05-06T18:53:38.201Z,4.40
2023-05-06T18:58:43.621Z,5.63
2023-05-06T19:03:49.286Z,4.43
2023-05-06T19:08:57.656Z,3.47
2023-05-06T19:14:04.971Z,4.23
2023-05-06T19:19:10.449Z,3.60
2023-05-06T19:24:16.115Z,3.57
2023-05-06T19:29:21.571Z,3.57
2023-05-06T19:34:27.201Z,4.00
2023-05-06T19:39:34.457Z,3.47
2023-05-06T19:44:39.876Z,3.50
2023-05-06T19:49:45.478Z,3.60
2023-05-06T19:54:52.475Z,3.53
2023-05-06T20:00:18.887Z,3.50
2023-05-06T20:05:25.028Z,3.10
2023-05-06T20:10:30.993Z,4.00
2023-05-06T20:15:36.622Z,4.50
2023-05-06T20:20:43.671Z,4.00
2023-05-06T20:25:49.486Z,4.43
2023-05-06T20:30:55.826Z,3.90
2023-05-06T20:36:01.582Z,3.60
2023-05-06T20:41:07.476Z,3.80
2023-05-06T20:46:13.565Z,3.67
2023-05-06T20:51:19.720Z,4.03
2023-05-06T20:56:26.279Z,4.47
2023-05-06T21:01:31.857Z,4.13
2023-05-06T21:06:38.644Z,4.50
2023-05-06T21:11:44.068Z,5.10
2023-05-06T21:16:49.651Z,3.93
2023-05-06T21:21:55.174Z,4.33
2023-05-06T21:27:00.801Z,4.00
2023-05-06T21:32:06.743Z,4.30
2023-05-06T21:37:12.176Z,4.00
2023-05-06T21:42:17.654Z,4.83
2023-05-06T21:47:23.477Z,4.07
2023-05-06T21:52:29.135Z,3.80
2023-05-06T21:57:34.795Z,3.77
2023-05-06T22:02:41.415Z,3.67
2023-05-06T22:07:47.454Z,5.20
2023-05-06T22:12:52.959Z,4.13
2023-05-06T22:17:59.324Z,4.90
2023-05-06T22:23:05.586Z,4.40
2023-05-06T22:28:11.158Z,4.33
2023-05-06T22:33:16.656Z,4.50
2023-05-06T22:38:22.171Z,4.30
2023-05-06T22:43:27.608Z,4.00
2023-05-06T22:48:33.202Z,4.30
2023-05-06T22:53:38.896Z,4.77
2023-05-06T22:58:45.011Z,4.50
2023-05-06T23:03:50.515Z,4.87
2023-05-06T23:08:57.052Z,5.80
2023-05-06T23:14:02.505Z,5.07
2023-05-06T23:19:07.931Z,4.63
2023-05-06T23:24:13.444Z,5.10
2023-05-06T23:29:18.975Z,4.40
2023-05-06T23:34:25.988Z,3.90
2023-05-06T23:39:31.536Z,4.23
2023-05-06T23:44:37.831Z,3.93
2023-05-06T23:49:43.529Z,4.30
2023-05-06T23:54:49.109Z,4.43
2023-05-06T23:59:54.554Z,4.03
